createdAt,value
2023-02-04T00:01:29.995Z,9.85
2023-02-04T00:03:56.520Z,10.24
2023-02-04T00:06:23.014Z,9.67
2023-02-04T00:08:49.532Z,9.73
2023-02-04T00:11:16.042Z,10.29
2023-02-04T00:13:42.608Z,10.25
2023-02-04T00:16:09.299Z,10.11
2023-02-04T00:18:35.815Z,10.13
2023-02-04T00:21:02.396Z,9.68
2023-02-04T00:23:29.140Z,9.87
2023-02-04T00:25:58.885Z,9.51
2023-02-04T00:28:25.409Z,9.97
2023-02-04T00:30:52.091Z,9.83
2023-02-04T00:33:18.637Z,9.85
2023-02-04T00:35:45.222Z,9.61
2023-02-04T00:38:11.752Z,8.97
2023-02-04T00:40:38.304Z,9.80
2023-02-04T00:43:05.379Z,10.25
2023-02-04T00:45:32.010Z,9.69
2023-02-04T00:47:59.413Z,9.72
2023-02-04T00:50:25.954Z,9.59
2023-02-04T00:52:52.608Z,9.85
2023-02-04T00:55:19.433Z,10.60
2023-02-04T00:57:49.252Z,9.75
2023-02-04T01:00:16.098Z,9.20
2023-02-04T01:02:44.036Z,9.35
2023-02-04T01:05:10.617Z,9.59
2023-02-04T01:07:37.876Z,10.29
2023-02-04T01:10:04.771Z,9.51
2023-02-04T01:12:31.305Z,10.09
2023-02-04T01:14:58.224Z,10.15
2023-02-04T01:17:25.065Z,10.04
2023-02-04T01:19:53.505Z,10.52
2023-02-04T01:22:20.253Z,10.38
2023-02-04T01:24:47.089Z,10.34
2023-02-04T01:27:32.381Z,10.37
2023-02-04T01:29:58.952Z,10.62
2023-02-04T01:32:25.527Z,10.36
2023-02-04T01:34:52.258Z,10.46
2023-02-04T01:37:18.905Z,10.79
2023-02-04T01:39:45.428Z,10.62
2023-02-04T01:42:13.499Z,10.71
2023-02-04T01:44:40.304Z,10.49
2023-02-04T01:47:07.004Z,10.69
2023-02-04T01:49:33.539Z,10.86
2023-02-04T01:52:00.246Z,10.32
2023-02-04T01:54:27.335Z,10.35
2023-02-04T01:56:55.389Z,10.68
2023-02-04T01:59:23.801Z,10.69
2023-02-04T02:01:52.504Z,10.26
2023-02-04T02:04:29.946Z,10.06
2023-02-04T02:07:01.692Z,10.31
2023-02-04T02:09:30.676Z,10.51
2023-02-04T02:11:57.698Z,10.72
2023-02-04T02:14:25.910Z,10.98
2023-02-04T02:16:52.533Z,10.77
2023-02-04T02:19:35.395Z,10.90
2023-02-04T02:22:22.077Z,11.17
2023-02-04T02:24:48.638Z,11.22
2023-02-04T02:27:15.186Z,11.23
2023-02-04T02:29:42.903Z,11.08
2023-02-04T02:32:12.583Z,11.40
2023-02-04T02:34:39.875Z,11.20
2023-02-04T02:37:08.947Z,11.41
2023-02-04T02:39:38.392Z,11.24
2023-02-04T02:42:05.220Z,11.43
2023-02-04T02:44:33.008Z,11.06
2023-02-04T02:47:00.276Z,11.24
2023-02-04T02:49:29.501Z,10.98
2023-02-04T02:51:56.040Z,10.89
2023-02-04T02:54:25.785Z,11.40
2023-02-04T02:56:55.619Z,11.40
2023-02-04T02:59:24.207Z,11.34
2023-02-04T03:02:01.271Z,11.38
2023-02-04T03:04:33.755Z,11.16
2023-02-04T03:07:01.310Z,11.13
2023-02-04T03:09:29.595Z,10.92
2023-02-04T03:11:56.429Z,11.24
2023-02-04T03:14:25.310Z,11.18
2023-02-04T03:16:54.328Z,10.57
2023-02-04T03:19:22.219Z,10.97
2023-02-04T03:21:49.515Z,11.36
2023-02-04T03:24:16.789Z,11.44
2023-02-04T03:26:43.423Z,10.98
2023-02-04T03:29:11.939Z,11.03
2023-02-04T03:31:38.888Z,10.58
2023-02-04T03:34:05.696Z,11.11
2023-02-04T03:36:32.613Z,10.59
2023-02-04T03:38:59.163Z,10.98
2023-02-04T03:41:25.702Z,10.79
2023-02-04T03:43:52.220Z,10.90
2023-02-04T03:46:18.860Z,10.77
2023-02-04T03:48:45.433Z,10.95
2023-02-04T03:51:11.984Z,10.56
2023-02-04T03:53:38.802Z,11.27
2023-02-04T03:56:05.452Z,10.54
2023-02-04T03:58:32.018Z,11.04
2023-02-04T04:00:58.783Z,10.97
2023-02-04T04:03:25.374Z,10.95
2023-02-04T04:05:51.885Z,10.63
2023-02-04T04:08:18.459Z,10.73
2023-02-04T04:10:45.032Z,10.64
2023-02-04T04:13:11.778Z,10.75
2023-02-04T04:15:38.348Z,10.94
2023-02-04T04:18:04.929Z,10.70
2023-02-04T04:20:31.770Z,10.86
2023-02-04T04:22:58.485Z,10.51
2023-02-04T04:25:25.351Z,10.17
2023-02-04T04:27:51.905Z,10.25
2023-02-04T04:30:18.652Z,10.47
2023-02-04T04:32:45.201Z,10.40
2023-02-04T04:35:11.701Z,10.12
2023-02-04T04:37:38.255Z,10.43
2023-02-04T04:40:05.160Z,10.46
2023-02-04T04:42:31.705Z,10.34
2023-02-04T04:44:58.250Z,10.05
2023-02-04T04:47:24.825Z,10.12
2023-02-04T04:49:51.371Z,10.26
2023-02-04T04:52:17.961Z,10.32
2023-02-04T04:54:44.530Z,10.36
2023-02-04T04:57:11.094Z,10.07
2023-02-04T04:59:37.652Z,10.00
2023-02-04T05:02:04.447Z,10.23
2023-02-04T05:04:31.057Z,9.52
2023-02-04T05:06:57.631Z,10.06
2023-02-04T05:09:24.162Z,9.59
2023-02-04T05:11:50.687Z,9.94
2023-02-04T05:14:17.212Z,10.21
2023-02-04T05:16:43.861Z,9.63
2023-02-04T05:19:10.436Z,10.12
2023-02-04T05:21:36.966Z,10.11
2023-02-04T05:24:03.552Z,9.43
2023-02-04T05:26:31.274Z,9.90
2023-02-04T05:29:00.446Z,9.95
2023-02-04T05:31:27.531Z,9.90
2023-02-04T05:33:54.558Z,9.63
2023-02-04T05:36:21.551Z,9.90
2023-02-04T05:38:48.183Z,9.97
2023-02-04T05:41:14.717Z,10.15
2023-02-04T05:43:41.286Z,10.05
2023-02-04T05:46:07.849Z,9.88
2023-02-04T05:48:34.460Z,9.93
2023-02-04T05:51:00.977Z,9.85
2023-02-04T05:53:27.547Z,9.88
2023-02-04T05:55:54.108Z,10.06
2023-02-04T05:58:20.598Z,9.65
2023-02-04T06:00:47.136Z,9.93
2023-02-04T06:03:14.502Z,9.96
2023-02-04T06:05:41.282Z,10.03
2023-02-04T06:08:07.826Z,9.92
2023-02-04T06:10:34.434Z,9.73
2023-02-04T06:13:01.048Z,9.82
2023-02-04T06:15:27.618Z,9.25
2023-02-04T06:17:54.210Z,9.77
2023-02-04T06:20:20.755Z,9.68
2023-02-04T06:22:47.613Z,9.71
2023-02-04T06:25:14.238Z,9.66
2023-02-04T06:27:40.797Z,9.93
2023-02-04T06:30:07.896Z,9.80
2023-02-04T06:32:34.469Z,9.73
2023-02-04T06:35:00.956Z,9.84
2023-02-04T06:37:27.516Z,9.73
2023-02-04T06:39:54.671Z,9.87
2023-02-04T06:42:21.307Z,9.88
2023-02-04T06:44:47.843Z,9.90
2023-02-04T06:47:14.363Z,9.94
2023-02-04T06:49:40.902Z,9.95
2023-02-04T06:52:07.462Z,10.08
2023-02-04T06:54:34.103Z,10.09
2023-02-04T06:57:06.518Z,9.98
2023-02-04T06:59:38.278Z,10.10
2023-02-04T07:02:06.872Z,10.06
2023-02-04T07:04:34.602Z,10.17
2023-02-04T07:07:01.190Z,10.03
2023-02-04T07:09:27.715Z,9.94
2023-02-04T07:11:54.295Z,9.90
2023-02-04T07:14:20.869Z,10.25
2023-02-04T07:16:47.450Z,10.18
2023-02-04T07:19:14.009Z,10.34
2023-02-04T07:21:40.561Z,10.37
2023-02-04T07:24:07.143Z,10.36
2023-02-04T07:26:34.338Z,10.51
2023-02-04T07:29:00.975Z,10.56
2023-02-04T07:31:27.762Z,10.60
2023-02-04T07:33:54.422Z,10.64
2023-02-04T07:36:21.084Z,10.69
2023-02-04T07:38:47.950Z,10.80
2023-02-04T07:41:14.624Z,10.76
2023-02-04T07:43:41.388Z,10.54
2023-02-04T07:46:07.981Z,10.61
2023-02-04T07:48:34.560Z,10.62
2023-02-04T07:51:01.106Z,10.73
2023-02-04T07:53:27.657Z,10.67
2023-02-04T07:55:54.179Z,10.63
2023-02-04T07:58:20.689Z,10.50
2023-02-04T08:00:47.244Z,10.39
2023-02-04T08:03:13.808Z,10.82
2023-02-04T08:05:40.328Z,10.77
2023-02-04T08:08:06.853Z,10.75
2023-02-04T08:10:34.182Z,10.85
2023-02-04T08:13:00.919Z,10.91
2023-02-04T08:15:27.439Z,11.17
2023-02-04T08:17:53.940Z,11.03
2023-02-04T08:20:20.567Z,11.23
2023-02-04T08:22:47.157Z,11.37
2023-02-04T08:25:13.812Z,11.34
2023-02-04T08:27:40.540Z,11.37
2023-02-04T08:30:07.681Z,11.56
2023-02-04T08:32:34.291Z,11.44
2023-02-04T08:35:01.338Z,11.46
2023-02-04T08:37:28.196Z,11.24
2023-02-04T08:39:55.865Z,11.32
2023-02-04T08:42:22.521Z,11.70
2023-02-04T08:44:49.226Z,11.75
2023-02-04T08:47:16.032Z,11.91
2023-02-04T08:49:42.662Z,11.79
2023-02-04T08:52:09.375Z,12.01
2023-02-04T08:54:36.196Z,12.04
2023-02-04T08:57:02.989Z,12.30
2023-02-04T08:59:29.711Z,12.30
2023-02-04T09:01:56.282Z,12.49
2023-02-04T09:04:23.510Z,12.70
2023-02-04T09:06:51.373Z,12.15
2023-02-04T09:09:18.015Z,12.09
2023-02-04T09:11:44.550Z,12.16
2023-02-04T09:14:11.393Z,12.08
2023-02-04T09:16:38.025Z,12.54
2023-02-04T09:19:05.476Z,12.77
2023-02-04T09:21:32.010Z,12.38
2023-02-04T09:23:58.644Z,12.64
2023-02-04T09:26:25.227Z,12.51
2023-02-04T09:28:51.748Z,11.77
2023-02-04T09:31:18.839Z,11.84
2023-02-04T09:33:45.497Z,12.10
2023-02-04T09:36:12.388Z,12.38
2023-02-04T09:38:39.146Z,12.46
2023-02-04T09:41:12.164Z,12.35
2023-02-04T09:43:42.898Z,12.32
2023-02-04T09:46:19.408Z,11.89
2023-02-04T09:48:46.085Z,11.81
2023-02-04T09:51:16.755Z,11.69
2023-02-04T09:53:43.362Z,12.21
2023-02-04T09:56:11.951Z,11.75
2023-02-04T09:58:38.478Z,12.01
2023-02-04T10:01:15.733Z,12.25
2023-02-04T10:03:48.372Z,11.83
2023-02-04T10:06:17.511Z,11.91
2023-02-04T10:08:47.328Z,12.32
2023-02-04T10:11:14.903Z,12.73
2023-02-04T10:13:45.057Z,12.36
2023-02-04T10:16:29.623Z,12.41
2023-02-04T10:19:01.754Z,12.44
2023-02-04T10:21:32.085Z,12.00
2023-02-04T10:24:01.228Z,12.54
2023-02-04T10:26:29.952Z,12.83
2023-02-04T10:29:04.626Z,12.40
2023-02-04T10:31:37.051Z,12.40
2023-02-04T10:34:07.587Z,12.07
2023-02-04T10:36:34.296Z,11.57
2023-02-04T10:39:10.828Z,12.52
2023-02-04T10:41:39.960Z,12.47
2023-02-04T10:44:12.762Z,12.56
2023-02-04T10:46:39.371Z,12.67
2023-02-04T10:49:17.756Z,12.09
2023-02-04T10:51:44.635Z,12.16
2023-02-04T10:54:31.382Z,12.43
2023-02-04T10:57:14.423Z,12.34
2023-02-04T10:59:41.927Z,12.89
2023-02-04T11:03:04.171Z,13.07
2023-02-04T11:05:35.639Z,13.07
2023-02-04T11:08:03.794Z,12.99
2023-02-04T11:10:33.131Z,12.85
2023-02-04T11:13:01.252Z,13.14
2023-02-04T11:15:51.222Z,12.58
2023-02-04T11:18:20.394Z,13.10
2023-02-04T11:20:52.100Z,13.67
2023-02-04T11:23:27.457Z,13.38
2023-02-04T11:26:17.294Z,12.58
2023-02-04T11:29:16.711Z,12.59
2023-02-04T11:31:46.511Z,12.00
2023-02-04T11:34:44.902Z,10.92
2023-02-04T11:37:28.463Z,11.66
2023-02-04T11:39:59.921Z,11.73
2023-02-04T11:42:41.199Z,13.26
2023-02-04T11:45:17.736Z,15.90
2023-02-04T11:47:44.567Z,17.84
2023-02-04T11:50:17.166Z,18.99
2023-02-04T11:52:43.796Z,19.14
2023-02-04T11:55:11.961Z,19.10
2023-02-04T11:57:44.233Z,17.99
2023-02-04T12:00:19.977Z,16.27
2023-02-04T12:02:49.185Z,15.46
2023-02-04T12:05:18.437Z,15.05
2023-02-04T12:07:45.979Z,14.43
2023-02-04T12:10:16.829Z,13.59
2023-02-04T12:12:49.212Z,13.65
2023-02-04T12:15:21.328Z,13.27
2023-02-04T12:18:01.039Z,12.91
2023-02-04T12:20:27.565Z,12.45
2023-02-04T12:22:54.322Z,12.42
2023-02-04T12:25:20.854Z,12.36
2023-02-04T12:27:47.388Z,12.56
2023-02-04T12:30:14.084Z,13.01
2023-02-04T12:32:40.604Z,13.50
2023-02-04T12:35:07.591Z,13.53
2023-02-04T12:37:34.265Z,14.18
2023-02-04T12:40:00.797Z,14.63
2023-02-04T12:42:27.320Z,14.82
2023-02-04T12:44:53.856Z,15.22
2023-02-04T12:47:20.411Z,15.09
2023-02-04T12:49:46.992Z,14.99
2023-02-04T12:52:13.668Z,15.06
2023-02-04T12:54:40.196Z,15.05
2023-02-04T12:57:06.766Z,14.93
2023-02-04T12:59:33.456Z,14.63
2023-02-04T13:02:00.072Z,14.48
2023-02-04T13:04:26.679Z,14.65
2023-02-04T13:06:53.234Z,14.29
2023-02-04T13:09:19.778Z,14.41
2023-02-04T13:11:46.342Z,14.74
2023-02-04T13:14:12.886Z,14.43
2023-02-04T13:16:39.425Z,14.04
2023-02-04T13:19:06.065Z,14.20
2023-02-04T13:21:32.680Z,14.30
2023-02-04T13:23:59.818Z,13.60
2023-02-04T13:26:26.519Z,14.07
2023-02-04T13:28:53.212Z,14.39
2023-02-04T13:31:19.930Z,14.37
2023-02-04T13:33:46.584Z,14.37
2023-02-04T13:36:13.276Z,15.94
2023-02-04T13:38:39.938Z,16.95
2023-02-04T13:41:06.530Z,16.03
2023-02-04T13:43:33.140Z,14.82
2023-02-04T13:46:00.660Z,14.09
2023-02-04T13:48:27.219Z,13.37
2023-02-04T13:50:53.740Z,12.93
2023-02-04T13:53:20.245Z,12.88
2023-02-04T13:55:46.841Z,12.70
2023-02-04T13:58:13.656Z,12.47
2023-02-04T14:00:40.306Z,12.02
2023-02-04T14:03:06.865Z,12.45
2023-02-04T14:05:33.412Z,12.47
2023-02-04T14:08:00.977Z,12.31
2023-02-04T14:10:27.628Z,12.34
2023-02-04T14:12:54.238Z,11.86
2023-02-04T14:15:20.762Z,12.14
2023-02-04T14:17:47.400Z,12.10
2023-02-04T14:20:14.062Z,11.92
2023-02-04T14:22:40.759Z,11.96
2023-02-04T14:25:09.818Z,12.28
2023-02-04T14:27:38.409Z,12.33
2023-02-04T14:30:06.173Z,12.16
2023-02-04T14:32:32.709Z,12.23
2023-02-04T14:34:59.242Z,12.13
2023-02-04T14:37:28.388Z,11.82
2023-02-04T14:39:55.121Z,12.04
2023-02-04T14:42:21.657Z,11.90
2023-02-04T14:44:48.216Z,12.01
2023-02-04T14:47:14.900Z,12.10
2023-02-04T14:49:41.490Z,11.96
2023-02-04T14:52:09.713Z,11.88
2023-02-04T14:54:37.171Z,11.96
2023-02-04T14:57:04.401Z,11.90
2023-02-04T14:59:30.931Z,11.98
2023-02-04T15:01:57.674Z,12.02
2023-02-04T15:04:24.247Z,12.03
2023-02-04T15:06:53.852Z,11.82
2023-02-04T15:09:20.425Z,11.71
2023-02-04T15:11:47.080Z,11.87
2023-02-04T15:14:13.759Z,11.91
2023-02-04T15:16:41.966Z,11.88
2023-02-04T15:19:09.208Z,11.89
2023-02-04T15:21:36.044Z,11.79
2023-02-04T15:24:02.571Z,11.76
2023-02-04T15:26:29.117Z,11.58
2023-02-04T15:28:55.682Z,11.69
2023-02-04T15:31:23.779Z,11.69
2023-02-04T15:33:50.911Z,11.62
2023-02-04T15:36:17.522Z,11.70
2023-02-04T15:38:44.412Z,11.38
2023-02-04T15:41:31.767Z,11.51
2023-02-04T15:43:58.323Z,11.45
2023-02-04T15:46:24.874Z,11.53
2023-02-04T15:48:51.460Z,11.57
2023-02-04T15:51:18.033Z,11.54
2023-02-04T15:53:44.619Z,11.56
2023-02-04T15:56:11.199Z,11.50
2023-02-04T15:58:38.378Z,11.47
2023-02-04T16:01:05.173Z,11.35
2023-02-04T16:03:31.764Z,11.06
2023-02-04T16:05:58.326Z,11.33
2023-02-04T16:08:24.882Z,11.26
2023-02-04T16:10:53.880Z,11.24
2023-02-04T16:13:21.217Z,11.22
2023-02-04T16:15:47.784Z,11.01
2023-02-04T16:18:14.366Z,11.13
2023-02-04T16:20:40.885Z,11.19
2023-02-04T16:23:08.084Z,11.19
2023-02-04T16:25:35.018Z,11.15
2023-02-04T16:28:02.350Z,11.15
2023-02-04T16:30:28.942Z,11.14
2023-02-04T16:32:55.492Z,11.11
2023-02-04T16:35:22.088Z,11.02
2023-02-04T16:37:48.682Z,11.02
2023-02-04T16:40:15.315Z,10.89
2023-02-04T16:42:41.863Z,10.89
2023-02-04T16:45:08.956Z,10.85
2023-02-04T16:47:35.607Z,10.76
2023-02-04T16:50:02.672Z,10.82
2023-02-04T16:52:29.697Z,10.94
2023-02-04T16:54:56.392Z,10.91
2023-02-04T16:57:23.224Z,10.97
2023-02-04T16:59:49.959Z,10.93
2023-02-04T17:02:16.623Z,10.90
2023-02-04T17:04:43.151Z,10.74
2023-02-04T17:07:09.829Z,10.67
2023-02-04T17:09:36.959Z,10.70
2023-02-04T17:12:03.628Z,10.73
2023-02-04T17:14:30.221Z,10.69
2023-02-04T17:16:56.769Z,10.69
2023-02-04T17:19:24.192Z,10.61
2023-02-04T17:21:50.820Z,10.67
2023-02-04T17:24:17.495Z,10.68
2023-02-04T17:26:44.036Z,10.66
2023-02-04T17:29:13.822Z,10.73
2023-02-04T17:31:43.135Z,10.66
2023-02-04T17:34:10.602Z,10.59
2023-02-04T17:36:37.518Z,10.59
2023-02-04T17:39:05.067Z,10.61
2023-02-04T17:41:32.406Z,10.53
2023-02-04T17:43:59.639Z,10.51
2023-02-04T17:46:26.627Z,10.48
2023-02-04T17:48:53.340Z,10.25
2023-02-04T17:51:19.964Z,10.22
2023-02-04T17:53:46.539Z,10.22
2023-02-04T17:56:14.506Z,9.89
2023-02-04T17:58:41.857Z,10.02
2023-02-04T18:01:18.746Z,9.93
2023-02-04T18:03:48.617Z,9.72
2023-02-04T18:06:25.112Z,9.69
2023-02-04T18:08:52.746Z,9.51
2023-02-04T18:11:27.418Z,9.68
2023-02-04T18:13:59.437Z,9.72
2023-02-04T18:16:30.095Z,9.29
2023-02-04T18:19:08.429Z,9.10
2023-02-04T18:21:36.973Z,9.34
2023-02-04T18:24:20.358Z,9.43
2023-02-04T18:26:50.106Z,9.43
2023-02-04T18:29:26.843Z,9.43
2023-02-04T18:32:18.051Z,9.51
2023-02-04T18:34:46.958Z,9.50
2023-02-04T18:37:35.833Z,9.40
2023-02-04T18:40:23.868Z,9.29
2023-02-04T18:42:53.982Z,9.21
2023-02-04T18:45:24.991Z,9.44
2023-02-04T18:47:55.181Z,9.34
2023-02-04T18:50:33.384Z,9.36
2023-02-04T18:53:12.405Z,9.33
2023-02-04T18:55:41.646Z,9.28
2023-02-04T18:58:31.050Z,9.29
2023-02-04T19:01:03.562Z,9.27
2023-02-04T19:03:33.389Z,9.28
2023-02-04T19:06:02.459Z,9.13
2023-02-04T19:08:40.519Z,9.11
2023-02-04T19:11:23.166Z,9.12
2023-02-04T19:13:52.835Z,9.03
2023-02-04T19:16:25.892Z,9.10
2023-02-04T19:18:56.765Z,8.99
2023-02-04T19:21:31.421Z,9.01
2023-02-04T19:24:21.352Z,8.88
2023-02-04T19:26:55.278Z,8.94
2023-02-04T19:29:23.153Z,8.94
2023-02-04T19:31:52.803Z,8.87
2023-02-04T19:34:38.068Z,8.82
2023-02-04T19:37:26.410Z,8.75
2023-02-04T19:39:55.133Z,8.65
2023-02-04T19:42:28.573Z,8.58
2023-02-04T19:44:59.240Z,8.50
2023-02-04T19:47:37.496Z,8.43
2023-02-04T19:50:13.372Z,8.40
2023-02-04T19:52:54.407Z,8.37
2023-02-04T19:55:28.030Z,8.28
2023-02-04T19:57:58.841Z,8.30
2023-02-04T20:00:28.412Z,8.15
2023-02-04T20:02:56.878Z,8.20
2023-02-04T20:05:24.090Z,8.18
2023-02-04T20:07:50.604Z,8.18
2023-02-04T20:10:25.018Z,8.15
2023-02-04T20:12:55.727Z,8.20
2023-02-04T20:15:25.546Z,8.18
2023-02-04T20:17:52.818Z,8.21
2023-02-04T20:20:29.791Z,8.15
2023-02-04T20:23:23.074Z,8.21
2023-02-04T20:25:50.420Z,8.18
2023-02-04T20:28:36.155Z,8.11
2023-02-04T20:31:15.567Z,7.99
2023-02-04T20:33:49.163Z,8.03
2023-02-04T20:36:18.398Z,8.02
2023-02-04T20:38:45.781Z,7.95
2023-02-04T20:41:22.345Z,7.90
2023-02-04T20:43:49.905Z,7.79
2023-02-04T20:46:25.636Z,7.65
2023-02-04T20:48:52.613Z,7.62
2023-02-04T20:51:23.247Z,7.58
2023-02-04T20:53:55.280Z,7.54
2023-02-04T20:56:26.585Z,7.58
2023-02-04T20:59:12.326Z,7.63
2023-02-04T21:01:46.855Z,7.58
2023-02-04T21:04:36.633Z,7.46
2023-02-04T21:07:16.775Z,7.47
2023-02-04T21:09:43.431Z,7.47
2023-02-04T21:12:10.544Z,7.42
2023-02-04T21:14:37.287Z,7.38
2023-02-04T21:17:04.455Z,7.50
2023-02-04T21:19:33.074Z,7.59
2023-02-04T21:21:59.700Z,7.60
2023-02-04T21:24:26.864Z,7.65
2023-02-04T21:26:53.888Z,7.70
2023-02-04T21:29:20.490Z,7.65
2023-02-04T21:31:47.059Z,7.59
2023-02-04T21:34:14.720Z,7.58
2023-02-04T21:36:41.251Z,7.56
2023-02-04T21:39:07.821Z,7.65
2023-02-04T21:41:34.430Z,7.78
2023-02-04T21:44:00.941Z,7.91
2023-02-04T21:46:27.560Z,7.92
2023-02-04T21:48:54.079Z,7.96
2023-02-04T21:51:20.629Z,8.07
2023-02-04T21:53:47.194Z,8.02
2023-02-04T21:56:14.364Z,8.04
2023-02-04T21:58:40.970Z,8.03
2023-02-04T22:01:07.504Z,7.96
2023-02-04T22:03:34.134Z,8.03
2023-02-04T22:06:00.785Z,7.83
2023-02-04T22:08:27.409Z,7.88
2023-02-04T22:10:53.918Z,7.90
2023-02-04T22:13:20.457Z,8.07
2023-02-04T22:15:48.100Z,8.00
2023-02-04T22:18:14.747Z,8.01
2023-02-04T22:20:41.301Z,8.11
2023-02-04T22:23:08.026Z,8.09
2023-02-04T22:25:34.925Z,8.14
2023-02-04T22:28:01.740Z,8.21
2023-02-04T22:30:28.335Z,8.27
2023-02-04T22:32:56.405Z,8.23
2023-02-04T22:35:23.098Z,8.13
2023-02-04T22:37:49.637Z,8.03
2023-02-04T22:40:16.217Z,8.01
2023-02-04T22:42:42.821Z,7.96
2023-02-04T22:45:10.304Z,8.04
2023-02-04T22:47:37.007Z,7.90
2023-02-04T22:50:03.817Z,8.00
2023-02-04T22:52:30.391Z,8.15
2023-02-04T22:54:56.907Z,7.97
2023-02-04T22:57:23.612Z,7.99
2023-02-04T22:59:50.138Z,8.00
2023-02-04T23:02:16.716Z,7.90
2023-02-04T23:04:44.082Z,7.94
2023-02-04T23:07:12.257Z,7.98
2023-02-04T23:09:39.639Z,8.03
2023-02-04T23:12:15.234Z,8.01
2023-02-04T23:14:44.503Z,8.01
2023-02-04T23:17:12.226Z,8.01
2023-02-04T23:19:38.789Z,7.98
2023-02-04T23:22:06.050Z,7.92
2023-02-04T23:24:33.244Z,7.87
2023-02-04T23:27:00.216Z,7.81
2023-02-04T23:29:28.425Z,7.70
2023-02-04T23:31:55.721Z,7.69
2023-02-04T23:34:22.285Z,7.71
2023-02-04T23:36:51.109Z,7.61
2023-02-04T23:39:18.852Z,7.63
2023-02-04T23:41:45.521Z,7.61
2023-02-04T23:44:12.324Z,7.45
2023-02-04T23:46:38.856Z,7.28
2023-02-04T23:49:05.510Z,7.49
2023-02-04T23:51:32.919Z,7.43
2023-02-04T23:53:59.576Z,7.48
2023-02-04T23:56:26.106Z,7.25
2023-02-04T23:58:53.593Z,7.21
